Time;durP1;ratioP1;P1;durP2;ratioP2;P2;SDS_P1;SDS_P2;PMS_P1;PMS_P2;Temp;Humidity;BMP_temperature;BMP_pressure;BME280_temperature;BME280_humidity;BME280_pressure;Samples;Min_cycle;Max_cycle;Signal;HPM_P1;HPM_P2
2021/10/07 00:02:07;;;;;;;44.83;42.07;;;;;;;13.44;100.00;102485.08;1941234;74;33030;-73
2021/10/07 00:07:32;;;;;;;43.53;40.60;;;;;;;13.30;100.00;102485.78;1941178;74;33065;-73
2021/10/07 00:12:58;;;;;;;42.87;40.00;;;;;;;13.48;100.00;102485.38;1941168;74;33129;-73
2021/10/07 00:18:23;;;;;;;43.07;40.37;;;;;;;13.43;100.00;102482.02;1940933;74;33157;-73
2021/10/07 00:24:01;;;;;;;45.97;42.80;;;;;;;13.36;100.00;102481.92;1940969;74;33167;-73
2021/10/07 00:29:42;;;;;;;44.50;41.50;;;;;;;13.31;100.00;102483.26;1941133;74;33498;-73
2021/10/07 00:35:35;;;;;;;44.53;41.63;;;;;;;13.42;100.00;102489.25;1940965;74;32994;-73
2021/10/07 00:40:48;;;;;;;44.33;41.23;;;;;;;13.35;100.00;102489.45;1940919;74;33002;-73
2021/10/07 00:46:12;;;;;;;43.90;40.90;;;;;;;13.27;100.00;102494.11;1940959;74;33052;-73
2021/10/07 00:51:37;;;;;;;44.97;41.87;;;;;;;13.28;100.00;102508.36;1941225;74;33574;-75
2021/10/07 00:57:04;;;;;;;44.63;41.83;;;;;;;13.40;100.00;102496.48;1941147;74;33196;-73
2021/10/07 01:02:29;;;;;;;45.67;42.87;;;;;;;13.49;100.00;102504.67;1940947;74;32994;-73
2021/10/07 01:07:57;;;;;;;43.83;40.83;;;;;;;13.39;100.00;102505.95;1940932;74;33000;-73
2021/10/07 01:13:21;;;;;;;46.40;43.03;;;;;;;13.22;100.00;102502.45;1941017;74;32999;-73
2021/10/07 01:18:47;;;;;;;45.17;42.10;;;;;;;13.20;100.00;102498.52;1941033;74;33088;-72
2021/10/07 01:24:13;;;;;;;45.10;41.90;;;;;;;13.37;100.00;102497.02;1940955;74;33702;-73
2021/10/07 01:29:38;;;;;;;45.17;41.87;;;;;;;13.38;100.00;102496.47;1941024;74;33100;-73
2021/10/07 01:35:13;;;;;;;44.70;41.53;;;;;;;13.45;100.00;102489.55;1941009;74;33068;-73
2021/10/07 01:40:37;;;;;;;47.27;43.93;;;;;;;13.34;100.00;102485.55;1941153;74;33018;-73
2021/10/07 01:46:02;;;;;;;45.03;41.53;;;;;;;13.41;100.00;102490.35;1941142;74;32992;-73
2021/10/07 01:51:27;;;;;;;45.53;42.43;;;;;;;13.43;100.00;102493.19;1940957;74;33002;-73
2021/10/07 01:56:51;;;;;;;45.70;42.37;;;;;;;13.30;100.00;102495.00;1940917;74;32981;-73
2021/10/07 02:02:16;;;;;;;49.63;45.90;;;;;;;13.24;100.00;102487.67;1940927;74;32990;-73
2021/10/07 02:07:59;;;;;;;50.40;47.00;;;;;;;13.30;100.00;102486.63;2009730;71;32901;-74
2021/10/07 02:13:25;;;;;;;48.77;45.10;;;;;;;13.13;100.00;102490.92;1941148;74;33512;-72
2021/10/07 02:18:49;;;;;;;47.73;44.23;;;;;;;13.20;100.00;102476.75;1941172;74;32991;-73
2021/10/07 02:24:15;;;;;;;46.33;43.17;;;;;;;13.20;100.00;102485.12;1941170;74;33723;-73
2021/10/07 02:29:39;;;;;;;48.20;44.80;;;;;;;13.37;100.00;102481.67;1941102;74;33445;-73
2021/10/07 02:35:06;;;;;;;48.37;45.07;;;;;;;13.28;100.00;102488.83;1940911;74;33045;-73
2021/10/07 02:40:31;;;;;;;45.93;42.50;;;;;;;13.11;100.00;102488.93;1940975;74;33094;-72
2021/10/07 02:45:55;;;;;;;45.47;42.37;;;;;;;13.07;100.00;102497.50;1941106;74;33465;-73
2021/10/07 02:51:23;;;;;;;46.13;42.67;;;;;;;13.28;100.00;102501.39;1940910;74;33002;-73
2021/10/07 02:56:47;;;;;;;43.97;40.67;;;;;;;13.40;100.00;102499.82;1941206;74;33463;-73
2021/10/07 03:02:12;;;;;;;45.27;41.87;;;;;;;13.23;100.00;102506.36;1940940;74;33085;-73
2021/10/07 03:07:37;;;;;;;45.50;42.13;;;;;;;13.12;100.00;102509.31;1941078;74;33489;-73
2021/10/07 03:13:03;;;;;;;43.90;40.40;;;;;;;13.05;100.00;102512.25;1940992;74;33053;-73
2021/10/07 03:18:47;;;;;;;45.87;42.63;;;;;;;13.26;100.00;102515.33;2009818;71;33348;-75
2021/10/07 03:24:12;;;;;;;43.23;40.20;;;;;;;13.15;100.00;102525.52;1940868;74;32988;-73
2021/10/07 03:29:36;;;;;;;42.03;38.83;;;;;;;13.10;100.00;102529.61;1941111;74;33063;-73
2021/10/07 03:35:02;;;;;;;42.27;39.23;;;;;;;13.16;100.00;102530.00;1940918;74;33105;-73
2021/10/07 03:40:27;;;;;;;41.97;38.73;;;;;;;13.36;100.00;102533.56;1941115;74;33508;-73
2021/10/07 03:45:50;;;;;;;41.17;38.17;;;;;;;13.37;100.00;102548.66;1940884;74;33080;-73
2021/10/07 03:51:15;;;;;;;39.97;37.07;;;;;;;13.37;100.00;102550.60;1941120;74;33538;-73
2021/10/07 03:56:41;;;;;;;42.00;38.80;;;;;;;13.17;100.00;102556.81;1941136;74;32974;-73
2021/10/07 04:02:06;;;;;;;41.93;38.73;;;;;;;13.19;100.00;102559.62;1881975;74;39822;-73
2021/10/07 04:07:31;;;;;;;42.43;39.17;;;;;;;13.34;100.00;102574.31;1941055;74;33537;-73
2021/10/07 04:12:55;;;;;;;42.03;39.00;;;;;;;13.31;100.00;102585.98;1940901;74;32996;-74
2021/10/07 04:18:23;;;;;;;42.57;38.97;;;;;;;13.34;100.00;102579.89;1941105;74;33505;-73
2021/10/07 04:23:47;;;;;;;40.80;37.67;;;;;;;13.38;100.00;102584.40;1940928;74;32969;-72
2021/10/07 04:29:12;;;;;;;42.57;39.57;;;;;;;13.41;100.00;102591.69;1940971;74;33085;-72
2021/10/07 04:34:36;;;;;;;41.00;37.70;;;;;;;13.64;100.00;102594.20;1940874;74;32983;-73
2021/10/07 04:40:01;;;;;;;42.30;38.87;;;;;;;13.93;100.00;102602.28;1941087;74;33617;-72
2021/10/07 04:45:27;;;;;;;43.43;39.77;;;;;;;14.02;100.00;102592.31;1941163;74;33198;-73
2021/10/07 04:50:51;;;;;;;42.60;39.40;;;;;;;14.05;100.00;102589.82;1940999;74;33085;-73
2021/10/07 04:56:16;;;;;;;42.90;39.57;;;;;;;13.88;100.00;102603.08;1940987;74;33062;-72
2021/10/07 05:01:40;;;;;;;43.07;39.60;;;;;;;14.02;100.00;102604.89;1941154;74;33477;-72
2021/10/07 05:07:05;;;;;;;44.83;41.20;;;;;;;14.06;100.00;102606.04;1940940;74;33062;-73
2021/10/07 05:12:30;;;;;;;42.13;38.80;;;;;;;14.09;100.00;102606.89;1941045;74;33002;-73
2021/10/07 05:18:02;;;;;;;43.07;39.33;;;;;;;14.10;100.00;102605.23;1941030;74;33107;-73
2021/10/07 05:23:26;;;;;;;43.40;39.83;;;;;;;14.19;100.00;102610.34;1941036;74;33068;-73
2021/10/07 05:28:51;;;;;;;44.80;40.80;;;;;;;14.19;100.00;102599.16;1941157;74;32992;-72
2021/10/07 05:34:16;;;;;;;44.30;40.60;;;;;;;14.24;100.00;102605.64;1940947;74;33050;-73
2021/10/07 05:39:40;;;;;;;47.37;43.23;;;;;;;14.25;100.00;102602.30;1941234;74;33167;-73
2021/10/07 05:45:08;;;;;;;48.67;44.10;;;;;;;14.30;100.00;102602.31;1940967;74;32995;-74
2021/10/07 05:50:33;;;;;;;49.03;44.37;;;;;;;14.27;100.00;102609.30;1941161;74;33090;-73
2021/10/07 05:55:58;;;;;;;48.40;43.93;;;;;;;14.27;100.00;102599.51;1940927;74;32992;-73
2021/10/07 06:01:22;;;;;;;50.63;45.47;;;;;;;14.33;100.00;102599.85;1940932;74;33057;-73
2021/10/07 06:06:47;;;;;;;49.40;44.67;;;;;;;14.30;100.00;102589.18;1940994;74;32991;-72
2021/10/07 06:12:12;;;;;;;47.90;42.77;;;;;;;14.44;100.00;102601.62;1941053;74;33092;-73
2021/10/07 06:17:37;;;;;;;49.53;43.43;;;;;;;14.46;100.00;102610.58;1940994;74;33041;-73
2021/10/07 06:23:04;;;;;;;48.37;43.30;;;;;;;14.47;100.00;102610.02;1941020;74;32984;-73
2021/10/07 06:28:32;;;;;;;49.27;44.33;;;;;;;14.53;100.00;102607.56;1941192;74;32985;-73
2021/10/07 06:33:59;;;;;;;48.00;43.33;;;;;;;14.60;100.00;102617.95;1941085;74;33585;-73
2021/10/07 06:39:23;;;;;;;46.37;41.93;;;;;;;14.55;100.00;102616.51;1940959;74;32990;-73
2021/10/07 06:44:47;;;;;;;46.80;42.17;;;;;;;14.68;100.00;102616.59;1940937;74;32994;-72
2021/10/07 06:50:13;;;;;;;45.67;41.33;;;;;;;14.67;100.00;102610.73;1941174;74;33504;-73
2021/10/07 06:55:38;;;;;;;46.67;42.27;;;;;;;14.76;100.00;102615.53;1941135;74;33559;-73
2021/10/07 07:01:02;;;;;;;47.20;42.10;;;;;;;14.85;100.00;102611.66;1941202;74;33470;-74
2021/10/07 07:06:28;;;;;;;46.47;41.83;;;;;;;14.94;100.00;102618.44;1940988;74;33061;-73
2021/10/07 07:11:53;;;;;;;50.93;45.53;;;;;;;14.96;100.00;102630.22;1941101;74;33494;-73
2021/10/07 07:17:20;;;;;;;49.77;44.83;;;;;;;14.96;100.00;102640.86;1940852;74;33125;-73
2021/10/07 07:22:44;;;;;;;49.73;43.93;;;;;;;15.00;100.00;102643.40;1941024;74;32989;-75
2021/10/07 07:28:10;;;;;;;48.97;43.77;;;;;;;15.11;100.00;102649.88;1941121;74;33445;-73
2021/10/07 07:33:35;;;;;;;50.03;44.70;;;;;;;15.16;100.00;102644.86;1940953;74;33145;-73
2021/10/07 07:39:00;;;;;;;50.17;44.83;;;;;;;15.19;100.00;102651.34;1940905;74;33609;-73
2021/10/07 07:44:24;;;;;;;48.10;43.30;;;;;;;15.35;100.00;102658.69;1940941;74;33085;-73
2021/10/07 07:49:50;;;;;;;48.77;43.67;;;;;;;15.41;100.00;102663.17;1941133;74;33053;-74
2021/10/07 07:55:17;;;;;;;47.73;42.83;;;;;;;15.48;100.00;102664.63;1941148;74;33798;-73
2021/10/07 08:00:42;;;;;;;46.97;42.03;;;;;;;15.55;100.00;102671.95;1940949;74;33129;-74
2021/10/07 08:06:08;;;;;;;48.33;42.50;;;;;;;15.57;100.00;102676.73;1940964;74;33000;-73
2021/10/07 08:11:37;;;;;;;49.97;41.87;;;;;;;15.56;100.00;102680.09;1940985;74;33092;-73
2021/10/07 08:17:01;;;;;;;49.97;41.77;;;;;;;15.65;100.00;102688.25;1941173;74;33587;-73
2021/10/07 08:22:26;;;;;;;49.57;42.03;;;;;;;15.70;100.00;102693.03;1940944;74;33052;-74
2021/10/07 08:27:51;;;;;;;49.13;43.77;;;;;;;15.79;100.00;102698.36;1940989;74;33082;-73
2021/10/07 08:33:15;;;;;;;51.77;43.77;;;;;;;15.85;100.00;102695.88;1941001;74;33601;-73
2021/10/07 08:38:40;;;;;;;47.93;42.40;;;;;;;15.94;100.00;102692.81;1941082;74;33122;-72
2021/10/07 08:44:07;;;;;;;55.00;43.80;;;;;;;16.00;100.00;102690.87;1941186;74;31074;-73
2021/10/07 08:49:36;;;;;;;47.90;42.67;;;;;;;16.05;100.00;102688.91;1941019;74;33050;-73
2021/10/07 08:55:00;;;;;;;51.67;43.33;;;;;;;16.11;100.00;102694.81;1941018;74;31176;-73
2021/10/07 09:00:25;;;;;;;46.77;41.17;;;;;;;16.17;100.00;102691.47;1940907;74;33126;-73
2021/10/07 09:05:50;;;;;;;45.50;40.50;;;;;;;16.21;100.00;102696.80;1941157;74;32970;-73
2021/10/07 09:11:26;;;;;;;47.00;41.93;;;;;;;16.28;100.00;102697.36;1941159;74;31575;-73
2021/10/07 09:16:59;;;;;;;46.83;41.97;;;;;;;16.44;100.00;102706.62;1940987;74;33033;-73
2021/10/07 09:22:28;;;;;;;45.70;41.13;;;;;;;16.51;100.00;102688.97;1941040;74;31055;-73
2021/10/07 09:27:57;;;;;;;46.80;42.03;;;;;;;16.57;100.00;102700.45;1941150;74;33606;-73
2021/10/07 09:33:29;;;;;;;46.73;41.93;;;;;;;16.64;100.00;102699.11;1940918;74;33708;-73
2021/10/07 09:39:11;;;;;;;46.23;41.93;;;;;;;16.74;100.00;102692.62;1941019;74;31052;-73
2021/10/07 09:44:35;;;;;;;47.67;42.73;;;;;;;16.79;100.00;102695.44;1941277;74;31062;-73
2021/10/07 09:50:18;;;;;;;45.20;40.90;;;;;;;16.75;100.00;102705.54;1941142;74;33467;-73
2021/10/07 09:55:51;;;;;;;47.60;43.07;;;;;;;16.80;100.00;102709.20;1940958;74;31188;-73
2021/10/07 10:01:17;;;;;;;46.17;41.77;;;;;;;16.83;100.00;102704.97;1941146;74;31529;-73
2021/10/07 10:06:42;;;;;;;45.93;41.83;;;;;;;16.91;100.00;102707.77;1940996;74;31191;-73
2021/10/07 10:12:12;;;;;;;45.80;41.20;;;;;;;16.99;100.00;102719.82;1941102;74;31567;-73
2021/10/07 10:17:41;;;;;;;47.10;42.60;;;;;;;17.04;100.00;102716.45;1940988;74;31176;-73
2021/10/07 10:23:14;;;;;;;48.57;44.00;;;;;;;17.02;100.00;102717.31;1941064;74;31141;-74
2021/10/07 10:28:52;;;;;;;44.70;40.60;;;;;;;17.07;100.00;102722.08;1941100;74;33547;-74
2021/10/07 10:34:25;;;;;;;47.40;43.27;;;;;;;16.88;100.00;102681.67;1941188;74;31557;-73
2021/10/07 10:39:52;;;;;;;46.50;42.23;;;;;;;17.12;100.00;102733.28;1940953;74;31058;-74
2021/10/07 10:45:15;;;;;;;45.33;41.73;;;;;;;17.19;100.00;102729.08;1941180;74;31666;-74
2021/10/07 10:50:40;;;;;;;47.03;42.77;;;;;;;17.26;100.00;102728.20;1941152;74;31114;-73
2021/10/07 10:56:18;;;;;;;43.93;40.27;;;;;;;17.39;100.00;102732.38;1941190;74;33565;-74
2021/10/07 11:02:07;;;;;;;46.07;42.17;;;;;;;17.46;100.00;102733.47;1941054;74;31222;-73
2021/10/07 11:07:40;;;;;;;44.57;41.17;;;;;;;17.54;100.00;102735.13;1941061;74;31051;-74
2021/10/07 11:13:15;;;;;;;44.87;41.27;;;;;;;17.61;100.00;102734.31;1941079;74;31064;-73
2021/10/07 11:18:43;;;;;;;44.40;40.90;;;;;;;17.68;100.00;102733.43;1940864;74;31459;-73
2021/10/07 11:24:15;;;;;;;42.23;38.83;;;;;;;17.71;100.00;102737.66;1941318;74;31126;-74
2021/10/07 11:29:40;;;;;;;43.47;40.17;;;;;;;17.81;100.00;102740.40;1941124;74;31161;-73
2021/10/07 11:35:12;;;;;;;43.33;40.23;;;;;;;17.92;100.00;102744.87;1941139;74;31221;-74
2021/10/07 11:40:47;;;;;;;45.40;42.10;;;;;;;17.89;100.00;102736.98;1941132;74;31164;-73
2021/10/07 11:46:16;;;;;;;45.10;41.90;;;;;;;18.03;100.00;102725.95;1941868;74;31112;-73
2021/10/07 11:51:43;;;;;;;45.33;41.97;;;;;;;18.10;100.00;102716.61;1941458;74;31126;-74
2021/10/07 11:57:17;;;;;;;43.73;40.60;;;;;;;18.13;100.00;102721.12;1941198;74;31716;-75
2021/10/07 12:02:43;;;;;;;42.77;39.33;;;;;;;18.15;100.00;102720.25;1940971;74;31149;-73
2021/10/07 12:08:17;;;;;;;45.07;41.73;;;;;;;18.17;100.00;102712.94;1941066;74;31055;-74
2021/10/07 12:13:45;;;;;;;44.50;41.17;;;;;;;18.26;100.00;102709.78;1941124;74;31042;-73
2021/10/07 12:19:16;;;;;;;42.83;39.50;;;;;;;18.32;100.00;102713.38;1941202;74;31549;-73
2021/10/07 12:24:41;;;;;;;42.80;39.63;;;;;;;18.38;100.00;102712.22;1941099;74;31523;-73
2021/10/07 12:30:08;;;;;;;43.63;40.43;;;;;;;18.38;100.00;102713.63;1940959;74;31146;-74
2021/10/07 12:35:33;;;;;;;44.50;41.20;;;;;;;18.46;100.00;102720.03;1941092;74;31635;-73
2021/10/07 12:41:02;;;;;;;45.40;41.60;;;;;;;18.43;100.00;102724.29;1940930;74;31074;-73
2021/10/07 12:46:32;;;;;;;44.23;40.83;;;;;;;18.44;100.00;102727.35;1940994;74;31109;-73
2021/10/07 12:51:57;;;;;;;48.37;44.70;;;;;;;18.48;100.00;102720.00;1940980;74;31059;-73
2021/10/07 12:57:40;;;;;;;45.80;42.33;;;;;;;18.49;100.00;102718.03;1940957;74;31153;-73
2021/10/07 13:03:20;;;;;;;46.00;42.50;;;;;;;18.46;100.00;102726.51;1940971;74;31202;-73
2021/10/07 13:08:45;;;;;;;46.10;42.70;;;;;;;18.49;100.00;102720.84;1941152;74;31151;-73
2021/10/07 13:14:12;;;;;;;44.27;40.97;;;;;;;18.59;100.00;102714.62;1941039;74;31049;-74
2021/10/07 13:19:37;;;;;;;46.67;43.07;;;;;;;18.64;100.00;102712.33;1941044;74;31110;-73
2021/10/07 13:25:02;;;;;;;44.10;40.70;;;;;;;18.66;100.00;102707.23;1941016;74;31535;-73
2021/10/07 13:30:30;;;;;;;44.13;40.90;;;;;;;18.69;100.00;102705.81;1941085;74;31070;-73
2021/10/07 13:35:55;;;;;;;43.43;40.23;;;;;;;18.68;100.00;102704.97;1941005;74;31056;-74
2021/10/07 13:41:19;;;;;;;45.47;42.07;;;;;;;18.69;100.00;102703.84;1941202;74;31069;-73
2021/10/07 13:46:44;;;;;;;44.87;41.23;;;;;;;18.64;100.00;102705.29;1941004;74;31164;-73
2021/10/07 13:52:08;;;;;;;43.80;40.63;;;;;;;18.65;100.00;102706.98;1941029;74;31063;-73
2021/10/07 13:57:33;;;;;;;47.77;44.27;;;;;;;18.63;100.00;102706.42;1940930;74;31133;-73
2021/10/07 14:02:57;;;;;;;45.40;41.93;;;;;;;18.56;100.00;102714.37;1940935;74;31119;-73
2021/10/07 14:08:30;;;;;;;46.07;42.73;;;;;;;18.54;100.00;102720.84;1941137;74;31052;-73
2021/10/07 14:13:51;;;;;;;46.13;42.63;;;;;;;18.57;100.00;102718.84;1941033;74;31550;-73
2021/10/07 14:19:16;;;;;;;45.80;42.23;;;;;;;18.55;100.00;102718.31;1941231;74;31056;-73
2021/10/07 14:24:42;;;;;;;43.57;40.27;;;;;;;18.52;100.00;102711.84;1941037;74;31119;-73
2021/10/07 14:30:10;;;;;;;45.93;42.77;;;;;;;18.61;100.00;102713.73;1940892;74;33564;-72
2021/10/07 14:35:35;;;;;;;46.87;43.47;;;;;;;18.64;100.00;102719.37;1940946;74;31080;-74
2021/10/07 14:41:03;;;;;;;45.63;42.63;;;;;;;18.62;100.00;102725.28;1940898;74;31162;-73
2021/10/07 14:46:26;;;;;;;53.00;48.77;;;;;;;18.64;100.00;102719.37;1941100;74;31577;-75
2021/10/07 14:51:50;;;;;;;53.90;50.10;;;;;;;18.64;100.00;102720.77;1941042;74;31033;-73
2021/10/07 14:57:15;;;;;;;50.50;46.87;;;;;;;18.57;100.00;102715.46;1940933;74;31115;-73
2021/10/07 15:02:40;;;;;;;50.00;46.00;;;;;;;18.61;100.00;102722.78;1941134;74;31622;-73
2021/10/07 15:08:08;;;;;;;52.97;48.53;;;;;;;18.59;100.00;102722.22;1940911;74;31135;-73
2021/10/07 15:13:36;;;;;;;50.33;46.13;;;;;;;18.55;100.00;102726.19;1941176;74;33552;-73
2021/10/07 15:19:01;;;;;;;52.47;47.87;;;;;;;18.54;100.00;102718.88;1941158;74;31076;-73
2021/10/07 15:24:24;;;;;;;50.17;46.00;;;;;;;18.62;100.00;102728.66;1941247;74;31201;-75
2021/10/07 15:29:48;;;;;;;46.93;43.33;;;;;;;18.59;100.00;102733.48;1941169;74;33492;-74
2021/10/07 15:35:13;;;;;;;48.73;45.03;;;;;;;18.49;100.00;102727.88;1941145;74;31100;-73
2021/10/07 15:40:38;;;;;;;47.17;43.83;;;;;;;18.56;100.00;102732.10;1941045;74;33531;-76
2021/10/07 15:46:03;;;;;;;45.63;42.43;;;;;;;18.55;100.00;102731.82;1941258;74;31529;-74
2021/10/07 15:51:27;;;;;;;44.90;41.70;;;;;;;18.56;100.00;102725.63;1941112;74;33577;-73
2021/10/07 15:56:52;;;;;;;47.40;43.90;;;;;;;18.63;100.00;102728.94;1941149;74;31545;-73
2021/10/07 16:02:20;;;;;;;48.17;44.67;;;;;;;18.48;100.00;102731.27;1941075;74;31036;-73
2021/10/07 16:07:50;;;;;;;48.60;45.17;;;;;;;18.41;100.00;102729.35;1941193;74;31570;-74
2021/10/07 16:13:16;;;;;;;48.47;45.07;;;;;;;18.40;100.00;102736.70;1941091;74;31110;-73
2021/10/07 16:18:40;;;;;;;45.53;42.40;;;;;;;18.39;100.00;102735.86;1941295;74;31041;-76
2021/10/07 16:24:08;;;;;;;47.53;44.20;;;;;;;18.41;100.00;102745.39;1941281;74;31538;-74
2021/10/07 16:29:33;;;;;;;47.53;44.03;;;;;;;18.46;100.00;102736.36;1941213;74;31610;-73
2021/10/07 16:35:01;;;;;;;46.20;42.77;;;;;;;18.48;100.00;102744.52;1941279;74;31113;-73
2021/10/07 16:40:27;;;;;;;46.23;43.03;;;;;;;18.48;100.00;102743.92;1941233;74;31063;-73
2021/10/07 16:45:51;;;;;;;46.23;43.03;;;;;;;18.50;100.00;102760.53;1941027;74;31126;-73
2021/10/07 16:51:22;;;;;;;49.90;46.23;;;;;;;18.44;100.00;102756.09;1941083;74;31063;-75
2021/10/07 16:56:43;;;;;;;47.77;44.27;;;;;;;18.42;100.00;102767.62;1941084;74;31192;-73
2021/10/07 17:02:10;;;;;;;44.80;41.50;;;;;;;18.40;100.00;102763.44;1941082;74;31063;-75
2021/10/07 17:07:36;;;;;;;44.57;41.33;;;;;;;18.49;100.00;102770.95;1941259;74;33551;-75
2021/10/07 17:13:02;;;;;;;45.83;42.53;;;;;;;18.45;100.00;102774.63;1941225;74;31561;-74
2021/10/07 17:18:27;;;;;;;44.03;40.83;;;;;;;18.35;100.00;102778.94;1941278;74;31508;-79
2021/10/07 17:23:51;;;;;;;45.63;42.63;;;;;;;18.34;100.00;102780.91;1941415;74;31606;-74
2021/10/07 17:29:17;;;;;;;45.43;42.23;;;;;;;18.34;100.00;102790.76;1941089;74;31142;-74
2021/10/07 17:34:41;;;;;;;47.63;44.43;;;;;;;18.36;100.00;102789.88;1941066;74;31076;-73
2021/10/07 17:40:12;;;;;;;43.67;40.57;;;;;;;18.31;100.00;102802.60;1941014;74;31053;-74
2021/10/07 17:45:37;;;;;;;44.87;41.60;;;;;;;18.36;100.00;102803.95;1941257;74;31182;-79
2021/10/07 17:51:02;;;;;;;44.33;41.13;;;;;;;18.31;100.00;102810.20;1941062;74;31068;-74
2021/10/07 17:56:26;;;;;;;47.57;44.17;;;;;;;18.28;100.00;102816.38;1941063;74;31045;-75
2021/10/07 18:01:51;;;;;;;47.57;44.10;;;;;;;18.13;100.00;102809.73;1940993;74;31045;-74
2021/10/07 18:07:18;;;;;;;43.93;40.93;;;;;;;17.88;100.00;102820.23;1941000;74;31053;-75
2021/10/07 18:12:42;;;;;;;49.83;45.97;;;;;;;17.76;100.00;102820.53;1941172;74;31644;-73
2021/10/07 18:18:09;;;;;;;51.83;47.83;;;;;;;17.71;100.00;102821.39;1941194;74;31526;-73
2021/10/07 18:23:37;;;;;;;47.63;43.93;;;;;;;17.48;100.00;102837.45;1940980;74;31149;-74
2021/10/07 18:29:04;;;;;;;48.37;44.70;;;;;;;17.26;100.00;102841.13;1941188;74;31547;-73
2021/10/07 18:34:30;;;;;;;47.73;44.13;;;;;;;17.35;100.00;102838.59;1941172;74;31567;-73
2021/10/07 18:40:01;;;;;;;46.87;43.07;;;;;;;17.02;100.00;102834.40;1941025;74;31142;-73
2021/10/07 18:45:26;;;;;;;48.67;44.97;;;;;;;16.91;100.00;102844.77;1941129;74;33049;-73
2021/10/07 18:50:50;;;;;;;46.33;42.83;;;;;;;16.70;100.00;102840.25;1941059;74;31106;-74
2021/10/07 18:56:15;;;;;;;47.13;43.43;;;;;;;16.66;100.00;102837.16;1940975;74;31128;-73
2021/10/07 19:01:40;;;;;;;48.13;44.33;;;;;;;16.97;100.00;102839.45;1941264;74;33509;-73
2021/10/07 19:07:04;;;;;;;46.10;42.60;;;;;;;16.60;100.00;102844.46;1941129;74;31053;-72
2021/10/07 19:12:30;;;;;;;46.80;42.83;;;;;;;16.24;100.00;102843.47;1941085;74;31058;-74
2021/10/07 19:18:06;;;;;;;48.03;44.13;;;;;;;16.19;100.00;102844.29;1941134;74;31719;-75
2021/10/07 19:23:33;;;;;;;48.83;44.97;;;;;;;16.10;100.00;102836.13;1941141;74;31684;-73
2021/10/07 19:29:11;;;;;;;45.27;41.47;;;;;;;16.03;100.00;102839.74;1940994;74;33053;-74
2021/10/07 19:34:45;;;;;;;48.87;44.53;;;;;;;15.85;100.00;102857.03;2021337;70;30604;-74
2021/10/07 19:40:18;;;;;;;49.30;45.50;;;;;;;15.61;100.00;102863.63;1941202;74;31540;-73
2021/10/07 19:45:43;;;;;;;48.23;44.77;;;;;;;15.71;100.00;102863.66;1940987;74;31176;-72
2021/10/07 19:51:07;;;;;;;49.53;45.47;;;;;;;15.86;100.00;102869.38;1940970;74;33206;-74
2021/10/07 19:56:32;;;;;;;48.57;44.67;;;;;;;15.65;100.00;102868.97;1940942;74;31036;-72
2021/10/07 20:01:56;;;;;;;49.40;45.30;;;;;;;15.72;100.00;102872.92;1941129;74;33025;-73
2021/10/07 20:07:21;;;;;;;52.13;47.93;;;;;;;15.93;100.00;102876.12;1941047;74;33076;-72
2021/10/07 20:12:54;;;;;;;48.67;44.67;;;;;;;15.69;100.00;102872.92;1941013;74;32984;-73
2021/10/07 20:18:19;;;;;;;50.33;46.03;;;;;;;15.73;100.00;102876.02;1941027;74;33071;-74
2021/10/07 20:23:45;;;;;;;54.10;49.40;;;;;;;16.16;100.00;102874.30;1941321;74;31538;-73
2021/10/07 20:29:10;;;;;;;52.53;47.93;;;;;;;16.03;100.00;102867.78;1941255;74;33433;-72
2021/10/07 20:34:49;;;;;;;53.07;48.57;;;;;;;15.76;100.00;102861.45;1941261;74;33121;-73
2021/10/07 20:40:14;;;;;;;52.03;47.63;;;;;;;15.57;100.00;102879.84;1941059;74;31107;-74
2021/10/07 20:45:38;;;;;;;49.57;45.30;;;;;;;15.61;100.00;102883.78;1940941;74;33111;-73
2021/10/07 20:51:03;;;;;;;48.63;44.63;;;;;;;15.40;100.00;102891.17;1941261;74;33559;-74
2021/10/07 20:56:27;;;;;;;49.90;45.77;;;;;;;15.31;100.00;102880.16;1941067;74;32976;-74
2021/10/07 21:01:52;;;;;;;49.33;45.33;;;;;;;15.08;100.00;102893.95;1940999;74;33119;-73
2021/10/07 21:07:16;;;;;;;48.27;44.60;;;;;;;14.87;100.00;102891.52;1941003;74;33107;-75
2021/10/07 21:12:42;;;;;;;46.77;43.37;;;;;;;14.58;100.00;102895.69;1941019;74;32984;-73
2021/10/07 21:18:07;;;;;;;46.50;43.03;;;;;;;14.72;100.00;102892.74;1941133;74;33590;-73
2021/10/07 21:23:31;;;;;;;47.20;43.83;;;;;;;14.63;100.00;102894.35;1941023;74;33054;-72
2021/10/07 21:28:56;;;;;;;45.40;41.77;;;;;;;14.65;100.00;102901.91;1941229;74;33554;-73
2021/10/07 21:34:20;;;;;;;46.53;42.90;;;;;;;14.48;100.00;102905.34;1941083;74;33041;-73
2021/10/07 21:39:48;;;;;;;46.63;43.23;;;;;;;14.25;100.00;102917.60;1941029;74;32994;-75
2021/10/07 21:45:16;;;;;;;45.50;42.03;;;;;;;14.32;100.00;102920.22;1940935;74;33520;-74
2021/10/07 21:50:42;;;;;;;44.30;41.30;;;;;;;14.26;100.00;102930.48;1940944;74;33699;-73
2021/10/07 21:56:08;;;;;;;45.87;42.67;;;;;;;14.17;100.00;102926.44;1941195;74;33565;-72
2021/10/07 22:01:35;;;;;;;44.47;41.27;;;;;;;14.15;100.00;102931.46;1941051;74;33062;-73
2021/10/07 22:07:05;;;;;;;43.57;40.37;;;;;;;14.03;100.00;102925.15;1940977;74;33014;-73
2021/10/07 22:12:29;;;;;;;42.87;39.87;;;;;;;14.38;100.00;102935.97;1940945;74;33082;-76
2021/10/07 22:17:54;;;;;;;43.57;40.50;;;;;;;14.41;100.00;102942.46;1941028;74;33504;-73
2021/10/07 22:23:19;;;;;;;42.90;40.00;;;;;;;14.29;100.00;102942.53;1941133;74;33010;-73
2021/10/07 22:29:04;;;;;;;40.17;37.23;;;;;;;14.42;100.00;102945.53;1998015;71;32870;-73
2021/10/07 22:34:34;;;;;;;47.07;43.27;;;;;;;14.79;100.00;102945.72;1941253;74;33569;-73
2021/10/07 22:39:59;;;;;;;47.80;43.87;;;;;;;15.07;100.00;102959.44;1941094;74;33485;-73
2021/10/07 22:45:23;;;;;;;47.70;43.50;;;;;;;15.20;100.00;102965.17;1941221;74;33633;-73
2021/10/07 22:50:48;;;;;;;51.40;46.77;;;;;;;15.23;100.00;102957.08;1940948;74;32998;-72
2021/10/07 22:56:13;;;;;;;48.70;44.67;;;;;;;15.26;100.00;102962.72;1941038;74;32993;-72
2021/10/07 23:01:37;;;;;;;50.10;45.87;;;;;;;15.59;100.00;102947.63;1941160;74;33000;-73
2021/10/07 23:07:22;;;;;;;50.10;45.60;;;;;;;15.42;100.00;102954.19;2005832;71;32854;-73
2021/10/07 23:12:46;;;;;;;52.13;47.43;;;;;;;15.41;100.00;102954.45;1941131;74;33577;-73
2021/10/07 23:18:11;;;;;;;50.93;45.93;;;;;;;15.56;100.00;102956.03;1941153;74;33044;-72
2021/10/07 23:23:36;;;;;;;50.10;45.20;;;;;;;15.69;100.00;102956.13;1941210;74;33518;-73
2021/10/07 23:29:00;;;;;;;54.83;49.53;;;;;;;15.66;100.00;102960.30;1940987;74;33066;-73
2021/10/07 23:34:25;;;;;;;52.50;47.00;;;;;;;15.76;100.00;102959.53;1941006;74;33103;-73
2021/10/07 23:39:49;;;;;;;55.17;49.70;;;;;;;15.79;100.00;102956.19;1940954;74;32972;-73
2021/10/07 23:45:13;;;;;;;62.67;56.70;;;;;;;15.88;100.00;102965.78;1925215;74;28556;-73
2021/10/07 23:50:38;;;;;;;57.80;51.57;;;;;;;15.88;100.00;102972.23;1941011;74;31013;-74
2021/10/07 23:56:03;;;;;;;62.97;56.43;;;;;;;15.88;100.00;102982.60;1940975;74;31127;-73
